createdAt,value
2018-12-15T00:02:22.561Z,4.80
2018-12-15T00:04:51.087Z,4.80
2018-12-15T00:07:18.561Z,4.70
2018-12-15T00:09:46.039Z,4.70
2018-12-15T00:12:13.501Z,4.70
2018-12-15T00:14:40.969Z,4.80
2018-12-15T00:17:08.426Z,4.80
2018-12-15T00:19:36.051Z,4.80
2018-12-15T00:22:03.734Z,4.80
2018-12-15T00:24:31.208Z,4.80
2018-12-15T00:26:58.729Z,4.80
2018-12-15T00:29:26.186Z,4.70
2018-12-15T00:31:53.662Z,4.70
2018-12-15T00:34:21.179Z,4.70
2018-12-15T00:36:48.627Z,4.90
2018-12-15T00:39:16.104Z,4.90
2018-12-15T00:41:43.632Z,4.90
2018-12-15T00:44:11.146Z,4.90
2018-12-15T00:46:38.711Z,4.90
2018-12-15T00:49:06.335Z,4.80
2018-12-15T00:51:33.788Z,4.80
2018-12-15T00:54:01.263Z,4.80
2018-12-15T00:56:28.736Z,4.80
2018-12-15T00:58:56.229Z,4.80
2018-12-15T01:01:23.731Z,4.80
2018-12-15T01:03:51.209Z,4.70
2018-12-15T01:06:18.735Z,4.70
2018-12-15T01:08:46.239Z,4.80
2018-12-15T01:11:13.713Z,4.80
2018-12-15T01:13:41.187Z,4.80
2018-12-15T01:16:08.680Z,4.80
2018-12-15T01:18:37.086Z,4.90
2018-12-15T01:21:04.617Z,4.90
2018-12-15T01:23:32.086Z,4.90
2018-12-15T01:25:59.554Z,4.90
2018-12-15T01:28:27.025Z,4.90
2018-12-15T01:30:54.505Z,4.90
2018-12-15T01:33:21.949Z,4.90
2018-12-15T01:35:49.455Z,4.90
2018-12-15T01:38:17.913Z,5.00
2018-12-15T01:40:45.386Z,5.00
2018-12-15T01:43:12.840Z,5.00
2018-12-15T01:45:40.329Z,5.00
2018-12-15T01:48:07.828Z,5.00
2018-12-15T01:50:35.326Z,5.00
2018-12-15T01:53:02.789Z,4.90
2018-12-15T01:55:30.386Z,4.90
2018-12-15T01:57:57.831Z,4.90
2018-12-15T02:00:25.351Z,4.90
2018-12-15T02:02:54.869Z,4.90
2018-12-15T02:05:22.368Z,4.80
2018-12-15T02:07:49.856Z,4.80
2018-12-15T02:10:17.338Z,4.90
2018-12-15T02:12:44.859Z,4.90
2018-12-15T02:15:12.409Z,4.90
2018-12-15T02:17:45.373Z,4.90
2018-12-15T02:20:12.842Z,4.90
2018-12-15T02:22:40.296Z,4.90
2018-12-15T02:25:07.781Z,4.80
2018-12-15T02:27:35.225Z,4.80
2018-12-15T02:30:02.862Z,4.80
2018-12-15T02:32:30.316Z,4.80
2018-12-15T02:34:57.794Z,4.80
2018-12-15T02:37:25.236Z,4.80
2018-12-15T02:39:52.702Z,4.80
2018-12-15T02:42:20.149Z,4.90
2018-12-15T02:44:47.620Z,4.90
2018-12-15T02:47:15.086Z,4.90
2018-12-15T02:49:42.576Z,4.90
2018-12-15T02:52:10.079Z,4.80
2018-12-15T02:54:37.553Z,4.80
2018-12-15T02:57:05.221Z,4.80
2018-12-15T02:59:32.837Z,4.80
2018-12-15T03:02:00.996Z,4.80
2018-12-15T03:04:28.473Z,4.90
2018-12-15T03:06:55.971Z,4.90
2018-12-15T03:09:23.429Z,4.90
2018-12-15T03:11:50.997Z,4.90
2018-12-15T03:14:18.443Z,4.90
2018-12-15T03:16:59.664Z,4.90
2018-12-15T03:19:27.133Z,4.90
2018-12-15T03:21:54.597Z,4.90
2018-12-15T03:24:22.050Z,4.90
2018-12-15T03:26:50.330Z,4.80
2018-12-15T03:29:17.797Z,4.90
2018-12-15T03:31:45.263Z,4.90
2018-12-15T03:34:12.772Z,4.90
2018-12-15T03:36:40.246Z,4.90
2018-12-15T03:39:07.727Z,4.90
2018-12-15T03:41:35.245Z,5.00
2018-12-15T03:44:02.685Z,4.90
2018-12-15T03:46:30.191Z,5.00
2018-12-15T03:48:57.647Z,4.90
2018-12-15T03:51:25.176Z,4.80
2018-12-15T03:53:52.677Z,4.80
2018-12-15T03:56:20.150Z,4.90
2018-12-15T03:58:47.612Z,4.90
2018-12-15T04:01:15.150Z,4.90
2018-12-15T04:03:42.629Z,4.90
2018-12-15T04:06:10.115Z,4.90
2018-12-15T04:08:37.595Z,4.90
2018-12-15T04:11:05.114Z,4.90
2018-12-15T04:13:32.570Z,4.90
2018-12-15T04:16:00.138Z,4.90
2018-12-15T04:18:27.576Z,5.00
2018-12-15T04:20:55.081Z,5.00
2018-12-15T04:23:22.570Z,5.00
2018-12-15T04:25:50.045Z,5.00
2018-12-15T04:28:17.515Z,5.00
2018-12-15T04:30:45.049Z,5.00
2018-12-15T04:33:12.509Z,4.90
2018-12-15T04:35:39.962Z,4.90
2018-12-15T04:38:07.435Z,4.90
2018-12-15T04:40:35.144Z,4.80
2018-12-15T04:43:02.619Z,4.80
2018-12-15T04:45:30.093Z,4.80
2018-12-15T04:47:57.694Z,4.80
2018-12-15T04:50:25.240Z,4.80
2018-12-15T04:52:52.709Z,4.90
2018-12-15T04:55:20.182Z,4.90
2018-12-15T04:57:47.653Z,4.90
2018-12-15T05:00:15.179Z,5.00
2018-12-15T05:02:44.014Z,5.00
2018-12-15T05:05:11.917Z,5.00
2018-12-15T05:07:39.584Z,5.00
2018-12-15T05:10:07.041Z,4.90
2018-12-15T05:12:34.551Z,4.80
2018-12-15T05:15:02.023Z,4.80
2018-12-15T05:17:29.589Z,4.80
2018-12-15T05:19:57.061Z,4.80
2018-12-15T05:22:24.533Z,4.80
2018-12-15T05:24:52.054Z,4.80
2018-12-15T05:27:19.919Z,4.80
2018-12-15T05:29:47.433Z,4.80
2018-12-15T05:32:15.006Z,4.80
2018-12-15T05:34:42.451Z,4.80
2018-12-15T05:37:09.932Z,4.80
2018-12-15T05:39:37.522Z,4.90
2018-12-15T05:42:05.013Z,4.80
2018-12-15T05:44:32.477Z,4.80
2018-12-15T05:47:00.954Z,4.90
2018-12-15T05:49:28.405Z,4.90
2018-12-15T05:51:55.886Z,5.00
2018-12-15T05:54:23.367Z,5.00
2018-12-15T05:56:50.941Z,5.00
2018-12-15T05:59:18.441Z,5.00
2018-12-15T06:01:46.097Z,5.10
2018-12-15T06:04:13.629Z,5.10
2018-12-15T06:06:41.117Z,5.10
2018-12-15T06:09:08.718Z,5.10
2018-12-15T06:11:36.280Z,5.20
2018-12-15T06:14:04.302Z,5.10
2018-12-15T06:16:31.792Z,5.20
2018-12-15T06:18:59.264Z,5.10
2018-12-15T06:21:26.773Z,5.10
2018-12-15T06:23:54.281Z,5.00
2018-12-15T06:26:21.728Z,5.00
2018-12-15T06:28:50.059Z,5.00
2018-12-15T06:31:18.197Z,5.00
2018-12-15T06:33:45.681Z,4.90
2018-12-15T06:36:13.268Z,5.00
2018-12-15T06:38:40.874Z,5.00
2018-12-15T06:41:08.350Z,5.00
2018-12-15T06:43:36.174Z,5.00
2018-12-15T06:46:03.689Z,5.00
2018-12-15T06:48:31.169Z,4.90
2018-12-15T06:51:00.046Z,4.90
2018-12-15T06:53:27.749Z,4.80
2018-12-15T06:55:55.257Z,4.90
2018-12-15T06:58:22.717Z,4.90
2018-12-15T07:00:50.170Z,4.90
2018-12-15T07:03:17.647Z,4.80
2018-12-15T07:05:45.119Z,4.90
2018-12-15T07:08:12.628Z,4.90
2018-12-15T07:10:40.190Z,4.90
2018-12-15T07:13:07.844Z,4.90
2018-12-15T07:15:35.354Z,4.90
2018-12-15T07:18:02.906Z,5.00
2018-12-15T07:20:30.408Z,4.90
2018-12-15T07:22:57.889Z,5.00
2018-12-15T07:25:25.369Z,5.00
2018-12-15T07:27:52.875Z,5.00
2018-12-15T07:30:20.953Z,5.00
2018-12-15T07:32:48.473Z,5.00
2018-12-15T07:35:16.102Z,5.10
2018-12-15T07:37:43.586Z,5.10
2018-12-15T07:40:11.146Z,5.00
2018-12-15T07:42:38.651Z,5.10
2018-12-15T07:45:06.192Z,5.10
2018-12-15T07:47:33.661Z,5.20
2018-12-15T07:50:01.142Z,5.10
2018-12-15T07:52:28.629Z,5.10
2018-12-15T07:54:57.066Z,5.10
2018-12-15T07:57:24.527Z,5.10
2018-12-15T07:59:52.032Z,5.00
2018-12-15T08:02:19.483Z,5.00
2018-12-15T08:04:46.957Z,5.00
2018-12-15T08:07:14.872Z,5.00
2018-12-15T08:09:42.417Z,5.00
2018-12-15T08:12:15.466Z,5.00
2018-12-15T08:14:42.928Z,5.00
2018-12-15T08:17:10.380Z,5.00
2018-12-15T08:19:37.873Z,4.90
2018-12-15T08:22:05.362Z,4.90
2018-12-15T08:24:32.846Z,4.80
2018-12-15T08:27:00.299Z,4.80
2018-12-15T08:29:27.780Z,4.80
2018-12-15T08:31:55.227Z,4.90
2018-12-15T08:34:22.687Z,4.90
2018-12-15T08:36:50.134Z,4.90
2018-12-15T08:39:17.750Z,4.90
2018-12-15T08:41:45.762Z,5.00
2018-12-15T08:44:13.280Z,5.00
2018-12-15T08:46:40.773Z,5.00
2018-12-15T08:49:08.328Z,4.90
2018-12-15T08:51:35.787Z,5.00
2018-12-15T08:54:03.432Z,5.00
2018-12-15T08:56:30.890Z,5.00
2018-12-15T08:58:58.405Z,5.00
2018-12-15T09:01:25.857Z,5.10
2018-12-15T09:03:53.360Z,5.10
2018-12-15T09:06:20.821Z,5.00
2018-12-15T09:08:48.297Z,5.00
2018-12-15T09:11:15.752Z,5.10
2018-12-15T09:13:43.219Z,5.10
2018-12-15T09:16:10.675Z,5.10
2018-12-15T09:18:38.139Z,5.30
2018-12-15T09:21:05.591Z,5.30
2018-12-15T09:23:33.162Z,5.40
2018-12-15T09:26:00.660Z,5.40
2018-12-15T09:28:28.113Z,5.40
2018-12-15T09:30:55.648Z,5.50
2018-12-15T09:33:23.098Z,5.50
2018-12-15T09:35:50.577Z,5.50
2018-12-15T09:38:18.081Z,5.50
2018-12-15T09:40:45.565Z,5.40
2018-12-15T09:43:13.022Z,5.40
2018-12-15T09:45:40.496Z,5.30
2018-12-15T09:48:07.941Z,5.30
2018-12-15T09:50:35.502Z,5.30
2018-12-15T09:53:02.999Z,5.20
2018-12-15T09:55:30.593Z,5.10
2018-12-15T09:57:58.045Z,4.90
2018-12-15T10:00:25.519Z,4.90
2018-12-15T10:02:53.152Z,4.80
2018-12-15T10:05:20.689Z,4.90
2018-12-15T10:07:48.187Z,4.90
2018-12-15T10:10:15.667Z,4.90
2018-12-15T10:12:43.161Z,4.90
2018-12-15T10:15:10.703Z,5.00
2018-12-15T10:17:38.183Z,5.00
2018-12-15T10:20:06.170Z,5.00
2018-12-15T10:22:33.647Z,5.00
2018-12-15T10:25:01.119Z,4.90
2018-12-15T10:27:28.597Z,4.90
2018-12-15T10:30:01.946Z,4.90
2018-12-15T10:32:35.066Z,5.00
2018-12-15T10:35:02.583Z,5.00
2018-12-15T10:37:30.158Z,5.10
2018-12-15T10:39:57.645Z,5.10
2018-12-15T10:42:25.209Z,5.10
2018-12-15T10:44:52.744Z,5.10
2018-12-15T10:47:20.229Z,5.10
2018-12-15T10:49:47.711Z,5.00
2018-12-15T10:52:15.187Z,5.00
2018-12-15T10:54:42.682Z,5.00
2018-12-15T10:57:10.139Z,5.00
2018-12-15T10:59:37.602Z,5.00
2018-12-15T11:02:05.296Z,5.00
2018-12-15T11:04:32.757Z,5.10
2018-12-15T11:07:00.413Z,5.10
2018-12-15T11:09:27.919Z,5.10
2018-12-15T11:11:55.419Z,5.10
2018-12-15T11:14:22.874Z,5.20
2018-12-15T11:16:50.510Z,5.20
2018-12-15T11:19:17.963Z,5.20
2018-12-15T11:21:45.480Z,5.20
2018-12-15T11:24:12.992Z,5.30
2018-12-15T11:26:40.452Z,5.40
2018-12-15T11:29:07.945Z,5.30
2018-12-15T11:31:35.471Z,5.30
2018-12-15T11:34:03.058Z,5.20
2018-12-15T11:36:30.529Z,5.00
2018-12-15T11:38:57.986Z,5.00
2018-12-15T11:41:25.460Z,5.10
2018-12-15T11:43:52.911Z,5.00
2018-12-15T11:46:20.373Z,5.10
2018-12-15T11:48:47.830Z,5.00
2018-12-15T11:51:15.291Z,4.90
2018-12-15T11:53:42.807Z,4.80
2018-12-15T11:56:10.307Z,4.80
2018-12-15T11:58:37.809Z,4.90
2018-12-15T12:01:05.331Z,4.90
2018-12-15T12:03:32.852Z,5.10
2018-12-15T12:06:00.333Z,5.20
2018-12-15T12:08:27.871Z,5.20
2018-12-15T12:10:55.368Z,5.20
2018-12-15T12:13:22.809Z,5.10
2018-12-15T12:15:50.948Z,5.00
2018-12-15T12:18:18.403Z,5.10
2018-12-15T12:20:46.086Z,5.10
2018-12-15T12:23:13.730Z,4.90
2018-12-15T12:25:41.201Z,4.90
2018-12-15T12:28:08.686Z,4.90
2018-12-15T12:30:36.189Z,4.90
2018-12-15T12:33:03.765Z,5.00
2018-12-15T12:35:31.206Z,4.90
2018-12-15T12:37:59.291Z,4.90
2018-12-15T12:40:26.781Z,4.70
2018-12-15T12:42:54.297Z,4.70
2018-12-15T12:45:21.738Z,4.60
2018-12-15T12:47:49.233Z,4.50
2018-12-15T12:50:16.688Z,4.50
2018-12-15T12:52:44.158Z,4.50
2018-12-15T12:55:11.639Z,4.40
2018-12-15T12:57:39.114Z,4.50
2018-12-15T13:00:06.793Z,4.50
2018-12-15T13:02:34.313Z,4.60
2018-12-15T13:05:01.810Z,4.60
2018-12-15T13:07:29.275Z,4.70
2018-12-15T13:09:56.736Z,4.80
2018-12-15T13:12:24.333Z,4.80
2018-12-15T13:14:51.867Z,4.90
2018-12-15T13:17:19.361Z,5.00
2018-12-15T13:19:46.807Z,5.10
2018-12-15T13:22:14.309Z,5.20
2018-12-15T13:24:41.759Z,5.10
2018-12-15T13:27:09.594Z,5.00
2018-12-15T13:29:37.054Z,5.00
2018-12-15T13:32:04.551Z,5.00
2018-12-15T13:34:32.127Z,4.90
2018-12-15T13:36:59.586Z,4.90
2018-12-15T13:39:27.038Z,4.90
2018-12-15T13:41:54.730Z,4.90
2018-12-15T13:44:22.404Z,4.90
2018-12-15T13:46:49.887Z,4.70
2018-12-15T13:49:17.605Z,4.50
2018-12-15T13:51:45.086Z,4.30
2018-12-15T13:54:12.543Z,4.10
2018-12-15T13:56:41.043Z,4.10
2018-12-15T13:59:08.544Z,4.10
2018-12-15T14:01:36.991Z,4.30
2018-12-15T14:04:04.462Z,4.40
2018-12-15T14:06:31.962Z,4.40
2018-12-15T14:08:59.435Z,4.50
2018-12-15T14:11:26.893Z,4.60
2018-12-15T14:13:54.413Z,4.70
2018-12-15T14:16:21.925Z,4.70
2018-12-15T14:18:49.509Z,4.80
2018-12-15T14:21:16.966Z,4.90
2018-12-15T14:23:44.470Z,4.90
2018-12-15T14:26:11.925Z,4.80
2018-12-15T14:28:39.425Z,4.80
2018-12-15T14:31:06.978Z,4.60
2018-12-15T14:33:34.445Z,4.50
2018-12-15T14:36:01.911Z,4.60
2018-12-15T14:38:29.410Z,4.50
2018-12-15T14:40:56.858Z,4.50
2018-12-15T14:43:24.335Z,4.40
2018-12-15T14:45:51.791Z,4.40
2018-12-15T14:48:19.257Z,4.20
2018-12-15T14:50:46.712Z,4.10
2018-12-15T14:53:14.190Z,3.90
2018-12-15T14:55:41.637Z,3.80
2018-12-15T14:58:09.123Z,3.80
2018-12-15T15:00:36.603Z,3.70
2018-12-15T15:03:04.073Z,3.60
2018-12-15T15:05:31.540Z,3.60
2018-12-15T15:07:59.013Z,3.60
2018-12-15T15:10:26.469Z,3.80
2018-12-15T15:12:54.054Z,3.70
2018-12-15T15:15:21.505Z,3.90
2018-12-15T15:17:49.406Z,4.00
2018-12-15T15:20:16.912Z,4.10
2018-12-15T15:22:44.486Z,4.20
2018-12-15T15:25:11.945Z,4.30
2018-12-15T15:27:39.438Z,4.30
2018-12-15T15:30:07.361Z,4.30
2018-12-15T15:32:34.829Z,4.30
2018-12-15T15:35:02.361Z,4.30
2018-12-15T15:37:29.821Z,4.30
2018-12-15T15:39:57.305Z,4.20
2018-12-15T15:42:24.777Z,4.30
2018-12-15T15:44:52.269Z,4.20
2018-12-15T15:47:19.734Z,4.30
2018-12-15T15:49:51.807Z,4.40
2018-12-15T15:52:19.685Z,4.40
2018-12-15T15:54:47.197Z,4.50
2018-12-15T15:57:14.823Z,4.50
2018-12-15T15:59:42.310Z,4.60
2018-12-15T16:02:09.834Z,4.60
2018-12-15T16:04:37.301Z,4.50
2018-12-15T16:07:04.769Z,4.50
2018-12-15T16:09:32.314Z,4.60
2018-12-15T16:11:59.762Z,4.60
2018-12-15T16:14:27.364Z,4.70
2018-12-15T16:16:54.818Z,4.70
2018-12-15T16:19:22.295Z,4.60
2018-12-15T16:21:49.730Z,4.60
2018-12-15T16:24:17.263Z,4.60
2018-12-15T16:26:44.745Z,4.60
2018-12-15T16:29:12.213Z,4.40
2018-12-15T16:31:39.676Z,4.30
2018-12-15T16:34:07.148Z,4.10
2018-12-15T16:36:34.697Z,3.90
2018-12-15T16:39:02.275Z,3.90
2018-12-15T16:41:29.828Z,3.70
2018-12-15T16:43:57.303Z,3.60
2018-12-15T16:46:24.748Z,3.60
2018-12-15T16:48:52.209Z,3.60
2018-12-15T16:51:19.868Z,3.40
2018-12-15T16:53:48.361Z,3.40
2018-12-15T16:56:15.817Z,3.40
2018-12-15T16:58:43.293Z,3.40
2018-12-15T17:01:10.793Z,3.30
2018-12-15T17:03:38.259Z,3.10
2018-12-15T17:06:05.732Z,3.10
2018-12-15T17:08:33.205Z,3.10
2018-12-15T17:11:00.801Z,3.20
2018-12-15T17:13:28.253Z,3.20
2018-12-15T17:15:55.726Z,3.30
2018-12-15T17:18:23.211Z,3.40
2018-12-15T17:20:56.684Z,3.40
2018-12-15T17:23:20.579Z,3.60
2018-12-15T17:25:48.093Z,3.50
2018-12-15T17:28:15.602Z,3.40
2018-12-15T17:30:43.146Z,3.20
2018-12-15T17:33:10.630Z,3.20
2018-12-15T17:35:38.109Z,3.20
2018-12-15T17:38:05.619Z,3.30
2018-12-15T17:40:33.085Z,3.40
2018-12-15T17:43:00.539Z,3.30
2018-12-15T17:45:28.010Z,3.30
2018-12-15T17:47:55.533Z,3.40
2018-12-15T17:50:22.996Z,3.50
2018-12-15T17:52:50.445Z,3.60
2018-12-15T17:55:17.937Z,3.70
2018-12-15T17:57:45.504Z,3.70
2018-12-15T18:00:13.805Z,3.70
2018-12-15T18:02:41.504Z,3.70
2018-12-15T18:05:09.098Z,3.70
2018-12-15T18:07:36.550Z,3.70
2018-12-15T18:10:06.573Z,3.60
2018-12-15T18:12:34.025Z,3.70
2018-12-15T18:15:01.576Z,3.80
2018-12-15T18:17:29.030Z,3.60
2018-12-15T18:19:56.491Z,3.60
2018-12-15T18:22:24.018Z,3.50
2018-12-15T18:24:51.499Z,3.40
2018-12-15T18:27:18.987Z,3.40
2018-12-15T18:29:46.648Z,3.40
2018-12-15T18:32:14.154Z,3.30
2018-12-15T18:34:41.637Z,3.30
2018-12-15T18:37:09.109Z,3.30
2018-12-15T18:39:36.629Z,3.40
2018-12-15T18:42:10.646Z,3.40
2018-12-15T18:44:33.705Z,3.40
2018-12-15T18:47:01.159Z,3.50
2018-12-15T18:49:28.690Z,3.60
2018-12-15T18:51:56.150Z,3.60
2018-12-15T18:54:23.777Z,3.50
2018-12-15T18:56:51.438Z,3.50
2018-12-15T18:59:19.238Z,3.40
2018-12-15T19:01:46.841Z,3.50
2018-12-15T19:04:14.355Z,3.50
2018-12-15T19:06:42.070Z,3.50
2018-12-15T19:09:09.524Z,3.50
2018-12-15T19:11:37.002Z,3.50
2018-12-15T19:14:04.521Z,3.60
2018-12-15T19:16:32.020Z,3.50
2018-12-15T19:18:59.485Z,3.50
2018-12-15T19:21:26.962Z,3.50
2018-12-15T19:23:54.438Z,3.50
2018-12-15T19:26:21.931Z,3.50
2018-12-15T19:28:49.367Z,3.50
2018-12-15T19:31:16.898Z,3.50
2018-12-15T19:33:44.377Z,3.60
2018-12-15T19:36:11.912Z,3.60
2018-12-15T19:38:39.646Z,3.70
2018-12-15T19:41:07.139Z,3.70
2018-12-15T19:43:34.637Z,3.70
2018-12-15T19:46:02.119Z,3.80
2018-12-15T19:48:29.679Z,3.80
2018-12-15T19:50:57.207Z,3.80
2018-12-15T19:53:24.678Z,3.80
2018-12-15T19:55:52.244Z,3.80
2018-12-15T19:58:19.751Z,3.80
2018-12-15T20:00:47.246Z,3.80
2018-12-15T20:03:14.759Z,3.80
2018-12-15T20:05:42.399Z,3.70
2018-12-15T20:08:09.875Z,3.70
2018-12-15T20:10:38.279Z,3.70
2018-12-15T20:13:05.921Z,3.70
2018-12-15T20:15:33.394Z,3.60
2018-12-15T20:18:00.870Z,3.60
2018-12-15T20:20:28.344Z,3.60
2018-12-15T20:22:56.894Z,3.60
2018-12-15T20:25:24.381Z,3.60
2018-12-15T20:27:52.250Z,3.60
2018-12-15T20:30:19.750Z,3.60
2018-12-15T20:32:47.283Z,3.60
2018-12-15T20:35:15.016Z,3.60
2018-12-15T20:37:42.547Z,3.60
2018-12-15T20:40:10.097Z,3.50
2018-12-15T20:42:37.633Z,3.50
2018-12-15T20:45:05.493Z,3.50
2018-12-15T20:47:32.989Z,3.50
2018-12-15T20:50:00.445Z,3.50
2018-12-15T20:52:27.990Z,3.50
2018-12-15T20:54:55.449Z,3.40
2018-12-15T20:57:23.073Z,3.40
2018-12-15T20:59:50.649Z,3.40
2018-12-15T21:02:18.141Z,3.30
2018-12-15T21:04:45.620Z,3.40
2018-12-15T21:07:13.109Z,3.30
2018-12-15T21:09:40.569Z,3.20
2018-12-15T21:12:08.070Z,3.20
2018-12-15T21:14:35.578Z,3.20
2018-12-15T21:17:03.054Z,3.20
2018-12-15T21:19:30.679Z,3.10
2018-12-15T21:21:58.255Z,3.10
2018-12-15T21:24:27.814Z,3.20
2018-12-15T21:26:55.787Z,3.20
2018-12-15T21:29:23.343Z,3.10
2018-12-15T21:31:56.494Z,3.20
2018-12-15T21:34:20.315Z,3.10
2018-12-15T21:36:47.827Z,3.10
2018-12-15T21:39:15.379Z,3.10
2018-12-15T21:41:43.034Z,3.10
2018-12-15T21:44:10.529Z,3.00
2018-12-15T21:46:38.098Z,3.10
2018-12-15T21:49:05.590Z,3.00
2018-12-15T21:51:33.088Z,3.10
2018-12-15T21:54:00.577Z,3.10
2018-12-15T21:56:28.193Z,3.00
2018-12-15T21:58:55.735Z,3.00
2018-12-15T22:01:23.179Z,3.10
2018-12-15T22:03:50.667Z,3.10
2018-12-15T22:06:18.223Z,3.10
2018-12-15T22:08:45.684Z,3.00
2018-12-15T22:11:13.172Z,3.00
2018-12-15T22:13:40.695Z,3.10
2018-12-15T22:16:08.147Z,3.10
2018-12-15T22:18:35.839Z,3.10
2018-12-15T22:21:03.305Z,3.10
2018-12-15T22:23:30.787Z,3.10
2018-12-15T22:25:58.288Z,3.10
2018-12-15T22:28:25.753Z,3.20
2018-12-15T22:30:53.271Z,3.20
2018-12-15T22:33:20.807Z,3.20
2018-12-15T22:35:48.590Z,3.20
2018-12-15T22:38:16.054Z,3.10
2018-12-15T22:40:43.510Z,3.10
2018-12-15T22:43:11.009Z,3.10
2018-12-15T22:45:38.471Z,3.10
2018-12-15T22:48:06.029Z,3.00
2018-12-15T22:50:33.509Z,3.00
2018-12-15T22:53:01.162Z,3.10
2018-12-15T22:55:28.635Z,3.10
2018-12-15T22:57:56.112Z,3.00
2018-12-15T23:00:23.937Z,3.00
2018-12-15T23:02:52.422Z,3.00
2018-12-15T23:05:20.082Z,3.00
2018-12-15T23:07:47.960Z,3.00
2018-12-15T23:10:15.466Z,3.00
2018-12-15T23:12:42.987Z,3.00
2018-12-15T23:15:10.575Z,3.00
2018-12-15T23:17:38.025Z,3.10
2018-12-15T23:20:06.295Z,3.10
2018-12-15T23:22:33.865Z,3.00
2018-12-15T23:25:01.414Z,3.00
2018-12-15T23:27:28.953Z,3.00
2018-12-15T23:29:56.492Z,3.20
2018-12-15T23:32:23.970Z,3.20
2018-12-15T23:34:51.452Z,3.20
2018-12-15T23:37:18.965Z,3.30
2018-12-15T23:39:46.507Z,3.20
2018-12-15T23:42:14.006Z,3.20
2018-12-15T23:44:41.497Z,3.10
2018-12-15T23:47:09.045Z,3.10
2018-12-15T23:49:36.525Z,2.90
2018-12-15T23:52:04.105Z,2.90
2018-12-15T23:54:31.569Z,2.80
2018-12-15T23:56:59.058Z,2.80
2018-12-15T23:59:26.543Z,2.80
